< < Back
Terminal Aerodrome Forecast


Current Version              Previous Versions:   1  2  3  4  5  6  7  8  9  

Terminal Aerodrome Forecast

770
FTUS42 KCHS 261307 AAA
TAFCHS
TAF AMD
KCHS 261307Z 2613/2712 28012G18KT P6SM SCT010
      TEMPO 2613/2614 BKN010
     FM261700 28018G27KT P6SM FEW040
     FM262200 28014G22KT P6SM VCTS BKN040CB
     FM270100 36013KT P6SM VCTS BKN040CB
     FM270300 01011KT P6SM SCT015 BKN040=

Latest METAR

774
SAUS80 KWBC 262200
MTRCHS
METAR KCHS 262156Z 27011G20KT 10SM FEW060 30/13 A2958 RMK AO2 SLP016
T03000128


USA.gov is the U.S. government's official web portal to all federal, state and local government web resources and services.